createdAt,value
2022-08-31T00:02:36.146Z,15.84
2022-08-31T00:07:37.997Z,15.82
2022-08-31T00:12:42.685Z,15.83
2022-08-31T00:17:45.252Z,15.86
2022-08-31T00:22:48.600Z,15.76
2022-08-31T00:27:50.305Z,15.81
2022-08-31T00:32:52.075Z,15.95
2022-08-31T00:37:54.100Z,15.98
2022-08-31T00:42:55.915Z,15.95
2022-08-31T00:47:57.575Z,15.92
2022-08-31T00:53:00.249Z,15.85
2022-08-31T00:58:04.140Z,15.84
2022-08-31T01:03:06.484Z,15.89
2022-08-31T01:08:08.162Z,16.00
2022-08-31T01:13:12.924Z,16.02
2022-08-31T01:18:14.652Z,16.09
2022-08-31T01:23:29.342Z,16.10
2022-08-31T01:28:31.038Z,16.04
2022-08-31T01:33:33.060Z,15.99
2022-08-31T01:38:35.408Z,15.99
2022-08-31T01:43:37.207Z,16.03
2022-08-31T01:48:41.499Z,15.89
2022-08-31T01:53:45.654Z,15.81
2022-08-31T01:58:50.548Z,15.84
2022-08-31T02:04:11.111Z,15.78
2022-08-31T02:09:13.073Z,15.82
2022-08-31T02:14:15.799Z,15.84
2022-08-31T02:19:17.984Z,15.82
2022-08-31T02:24:19.685Z,15.77
2022-08-31T02:29:21.665Z,15.70
2022-08-31T02:34:23.391Z,15.64
2022-08-31T02:39:25.109Z,15.60
2022-08-31T02:44:26.838Z,15.65
2022-08-31T02:49:28.569Z,15.62
2022-08-31T02:54:30.318Z,15.53
2022-08-31T02:59:32.024Z,15.47
2022-08-31T03:04:33.783Z,15.48
2022-08-31T03:09:35.487Z,15.44
2022-08-31T03:14:37.590Z,15.42
2022-08-31T03:19:39.288Z,15.49
2022-08-31T03:24:40.982Z,15.40
2022-08-31T03:29:42.774Z,15.29
2022-08-31T03:34:58.213Z,15.30
2022-08-31T03:40:00.020Z,15.23
2022-08-31T03:45:01.944Z,15.16
2022-08-31T03:50:07.444Z,15.17
2022-08-31T03:55:21.724Z,15.16
2022-08-31T04:00:25.478Z,15.04
2022-08-31T04:05:37.269Z,14.91
2022-08-31T04:10:58.129Z,14.82
2022-08-31T04:16:35.202Z,14.78
2022-08-31T04:22:08.352Z,14.67
2022-08-31T04:27:14.623Z,14.58
2022-08-31T04:32:16.468Z,14.54
2022-08-31T04:37:18.399Z,14.45
2022-08-31T04:42:20.315Z,14.31
2022-08-31T04:47:22.141Z,14.36
2022-08-31T04:52:28.130Z,14.34
2022-08-31T04:57:31.410Z,14.33
2022-08-31T05:02:35.720Z,14.30
2022-08-31T05:07:46.040Z,14.26
2022-08-31T05:12:47.872Z,14.22
2022-08-31T05:17:49.790Z,14.22
2022-08-31T05:22:51.680Z,14.24
2022-08-31T05:27:55.450Z,14.25
2022-08-31T05:32:57.190Z,14.20
2022-08-31T05:37:58.925Z,14.33
2022-08-31T05:43:00.588Z,14.45
2022-08-31T05:48:02.509Z,14.68
2022-08-31T05:53:06.938Z,14.67
2022-08-31T05:58:09.176Z,14.77
2022-08-31T06:03:11.650Z,14.80
2022-08-31T06:08:15.438Z,14.77
2022-08-31T06:13:18.449Z,14.86
2022-08-31T06:18:21.021Z,14.86
2022-08-31T06:23:24.999Z,15.00
2022-08-31T06:28:26.910Z,15.03
2022-08-31T06:33:29.301Z,15.13
2022-08-31T06:38:49.348Z,15.24
2022-08-31T06:44:12.268Z,15.36
2022-08-31T06:49:29.958Z,15.49
2022-08-31T06:54:32.366Z,15.55
2022-08-31T06:59:53.693Z,15.64
2022-08-31T07:05:27.471Z,15.79
2022-08-31T07:10:30.056Z,15.87
2022-08-31T07:15:31.836Z,15.98
2022-08-31T07:20:33.990Z,16.09
2022-08-31T07:25:37.046Z,16.23
2022-08-31T07:30:41.985Z,16.38
2022-08-31T07:35:45.366Z,16.44
2022-08-31T07:41:13.458Z,16.57
2022-08-31T07:46:16.462Z,16.72
2022-08-31T07:51:23.507Z,16.84
2022-08-31T07:56:46.500Z,16.97
2022-08-31T08:01:50.021Z,17.04
2022-08-31T08:07:00.159Z,17.12
2022-08-31T08:12:25.178Z,17.21
2022-08-31T08:17:37.743Z,17.33
2022-08-31T08:22:54.305Z,17.41
2022-08-31T08:28:22.628Z,17.44
2022-08-31T08:33:30.788Z,17.50
2022-08-31T08:38:32.748Z,17.57
2022-08-31T08:43:38.290Z,17.66
2022-08-31T08:48:41.159Z,17.78
2022-08-31T08:53:46.986Z,17.90
2022-08-31T08:59:02.139Z,18.00
2022-08-31T09:04:23.691Z,18.14
2022-08-31T09:09:46.569Z,18.28
2022-08-31T09:15:11.210Z,18.45
2022-08-31T09:20:16.480Z,18.54
2022-08-31T09:25:32.651Z,18.67
2022-08-31T09:30:43.973Z,18.87
2022-08-31T09:35:45.767Z,19.03
2022-08-31T09:40:48.499Z,19.16
2022-08-31T09:46:07.202Z,19.29
2022-08-31T09:51:09.048Z,19.34
2022-08-31T09:56:14.260Z,19.39
2022-08-31T10:01:25.756Z,19.42
2022-08-31T10:06:45.611Z,19.52
2022-08-31T10:11:48.743Z,19.66
2022-08-31T10:17:04.084Z,19.73
2022-08-31T10:22:25.320Z,19.72
2022-08-31T10:27:32.339Z,19.88
2022-08-31T10:32:42.480Z,20.14
2022-08-31T10:38:24.135Z,20.34
2022-08-31T10:43:31.714Z,20.40
2022-08-31T10:48:33.999Z,20.42
2022-08-31T10:53:40.112Z,20.55
2022-08-31T10:59:06.508Z,20.63
2022-08-31T11:04:27.384Z,20.73
2022-08-31T11:09:59.586Z,20.76
2022-08-31T11:15:10.363Z,20.87
2022-08-31T11:20:24.235Z,20.95
2022-08-31T11:25:48.875Z,21.07
2022-08-31T11:30:52.190Z,21.17
2022-08-31T11:36:07.071Z,21.40
2022-08-31T11:41:36.201Z,21.49
2022-08-31T11:46:37.851Z,21.60
2022-08-31T11:51:41.923Z,21.79
2022-08-31T11:56:45.223Z,22.09
2022-08-31T12:01:46.931Z,22.60
2022-08-31T12:06:48.437Z,23.18
2022-08-31T12:12:15.921Z,23.96
2022-08-31T12:17:23.064Z,24.84
2022-08-31T12:23:01.640Z,25.33
2022-08-31T12:28:30.777Z,25.68
2022-08-31T12:33:32.432Z,26.30
2022-08-31T12:38:34.122Z,26.68
2022-08-31T12:43:39.222Z,26.95
2022-08-31T12:48:46.864Z,27.21
2022-08-31T12:53:51.396Z,27.33
2022-08-31T12:59:05.330Z,26.53
2022-08-31T13:04:07.034Z,25.86
2022-08-31T13:09:09.186Z,25.96
2022-08-31T13:14:14.685Z,26.19
2022-08-31T13:19:29.378Z,26.54
2022-08-31T13:24:41.519Z,26.78
2022-08-31T13:29:46.189Z,27.37
2022-08-31T13:34:49.220Z,26.97
2022-08-31T13:39:50.947Z,26.98
2022-08-31T13:44:54.742Z,27.11
2022-08-31T13:50:08.808Z,27.39
2022-08-31T13:55:11.794Z,27.72
2022-08-31T14:00:29.205Z,28.30
2022-08-31T14:05:32.969Z,29.10
2022-08-31T14:10:40.625Z,29.35
2022-08-31T14:15:50.392Z,28.84
2022-08-31T14:21:22.682Z,29.39
2022-08-31T14:26:28.027Z,29.98
2022-08-31T14:31:37.103Z,30.33
2022-08-31T14:36:50.285Z,30.47
2022-08-31T14:41:53.337Z,30.76
2022-08-31T14:46:55.221Z,30.82
2022-08-31T14:52:04.509Z,30.95
2022-08-31T14:57:10.046Z,31.18
2022-08-31T15:02:12.874Z,31.35
2022-08-31T15:07:15.410Z,31.28
2022-08-31T15:12:17.164Z,31.24
2022-08-31T15:17:20.443Z,31.33
2022-08-31T15:22:24.207Z,31.17
2022-08-31T15:27:28.679Z,30.45
2022-08-31T15:32:31.489Z,30.07
2022-08-31T15:37:33.237Z,29.49
2022-08-31T15:42:38.246Z,29.21
2022-08-31T15:47:58.603Z,29.02
2022-08-31T15:53:09.458Z,29.01
2022-08-31T15:58:12.729Z,28.98
2022-08-31T16:03:14.613Z,29.05
2022-08-31T16:08:16.757Z,29.03
2022-08-31T16:13:19.400Z,28.92
2022-08-31T16:18:21.959Z,28.66
2022-08-31T16:23:24.861Z,28.35
2022-08-31T16:28:26.700Z,28.02
2022-08-31T16:33:30.399Z,28.12
2022-08-31T16:38:32.416Z,28.51
2022-08-31T16:43:34.257Z,28.33
2022-08-31T16:48:54.683Z,28.34
2022-08-31T16:53:59.258Z,28.17
2022-08-31T16:59:01.274Z,27.70
2022-08-31T17:04:07.675Z,27.48
2022-08-31T17:09:11.231Z,27.06
2022-08-31T17:14:16.404Z,26.63
2022-08-31T17:19:19.862Z,26.08
2022-08-31T17:24:23.525Z,26.24
2022-08-31T17:29:26.958Z,25.45
2022-08-31T17:34:31.194Z,24.98
2022-08-31T17:39:32.986Z,24.65
2022-08-31T17:44:34.864Z,24.31
2022-08-31T17:49:38.055Z,23.97
2022-08-31T17:54:42.117Z,23.64
2022-08-31T17:59:46.576Z,23.23
2022-08-31T18:04:49.111Z,22.80
2022-08-31T18:09:51.058Z,22.49
2022-08-31T18:14:53.818Z,22.19
2022-08-31T18:19:55.696Z,21.81
2022-08-31T18:24:58.261Z,21.56
2022-08-31T18:30:00.826Z,21.35
2022-08-31T18:35:05.964Z,21.10
2022-08-31T18:40:27.342Z,20.83
2022-08-31T18:45:30.833Z,20.52
2022-08-31T18:50:35.013Z,20.22
2022-08-31T18:55:39.449Z,19.95
2022-08-31T19:00:41.671Z,19.75
2022-08-31T19:05:43.596Z,19.58
2022-08-31T19:10:45.625Z,19.32
2022-08-31T19:15:51.065Z,19.13
2022-08-31T19:20:52.920Z,18.98
2022-08-31T19:25:54.802Z,18.84
2022-08-31T19:30:56.666Z,18.66
2022-08-31T19:36:04.623Z,18.49
2022-08-31T19:41:23.229Z,18.28
2022-08-31T19:46:25.534Z,18.17
2022-08-31T19:51:28.110Z,17.98
2022-08-31T19:56:30.618Z,17.71
2022-08-31T20:01:35.357Z,17.51
2022-08-31T20:06:37.834Z,17.36
2022-08-31T20:11:39.672Z,17.25
2022-08-31T20:16:43.303Z,17.12
2022-08-31T20:21:45.260Z,17.05
2022-08-31T20:26:51.925Z,16.96
2022-08-31T20:31:55.509Z,16.95
2022-08-31T20:37:01.159Z,16.87
2022-08-31T20:42:03.740Z,16.85
2022-08-31T20:47:28.203Z,16.84
2022-08-31T20:52:31.923Z,16.77
2022-08-31T20:57:34.990Z,16.69
2022-08-31T21:02:39.737Z,16.63
2022-08-31T21:07:41.472Z,16.56
2022-08-31T21:12:43.144Z,16.52
2022-08-31T21:17:45.985Z,16.38
2022-08-31T21:22:47.669Z,16.24
2022-08-31T21:27:49.351Z,16.07
2022-08-31T21:32:52.111Z,15.95
2022-08-31T21:37:53.807Z,15.90
2022-08-31T21:42:55.735Z,15.90
2022-08-31T21:47:57.607Z,15.88
2022-08-31T21:53:00.571Z,15.82
2022-08-31T21:58:02.509Z,15.71
2022-08-31T22:03:05.073Z,15.62
2022-08-31T22:08:06.788Z,15.58
2022-08-31T22:13:09.025Z,15.60
2022-08-31T22:18:58.245Z,15.65
2022-08-31T22:23:32.588Z,15.57
2022-08-31T22:28:34.673Z,15.43
2022-08-31T22:33:37.403Z,15.39
2022-08-31T22:38:42.774Z,15.31
2022-08-31T22:43:44.614Z,15.19
2022-08-31T22:48:46.758Z,15.18
2022-08-31T22:53:51.475Z,15.17
2022-08-31T22:58:54.154Z,15.13
2022-08-31T23:03:57.024Z,15.08
2022-08-31T23:08:59.940Z,15.01
2022-08-31T23:14:05.435Z,14.83
2022-08-31T23:19:14.170Z,14.66
2022-08-31T23:24:21.605Z,14.50
2022-08-31T23:29:24.284Z,14.39
2022-08-31T23:34:26.180Z,14.28
2022-08-31T23:39:27.896Z,14.17
2022-08-31T23:44:30.043Z,14.08
2022-08-31T23:49:31.777Z,14.04
2022-08-31T23:54:36.152Z,13.95
2022-08-31T23:59:39.609Z,13.88
